Airfield :
LOGIN :

Register | Disclaimer

   EN    FR    IT 

 










Legend :    VFR   Marginal VFR   IFR   Intensive IFR   Very Intensive IFR
Visi :
Ceiling :
>= 8 km
>= 3000ft
5 to 8 km
1000 to 3000 ft
1500m to 5 km
500 to 1000 ft
800 to 1500m
200 to 500 ft
< 800m
< 200 ft
Symbols :   Thunderstorms  Fog  Heavy snow  Heavy precipitations  Wind > 20 kt
SIGMETs :     Misc.  Thunderstorms  Icing  Turbulence  Mountain Waves  Volcanic Ashes






- Airport Elevation : 472 ft
- IATA code : GME


UMGG - Gomel

CURRENT METAR :
  • 251400Z 30002MPS 9999 BKN032 12/08 Q1018 R28/CLRD// NOSIG

EXPIRED METARs :
  • 251330Z 29002MPS 9999 BKN022 13/08 Q1018 R28/D NOSIG
  • 251300Z 30003MPS 9999 BKN023 13/08 Q1018 R28/D NOSIG
  • 251230Z 29003MPS 9999 BKN021 13/08 Q1018 R28/CLRD// NOSIG
  • 251200Z 31004MPS 9999 BKN020 13/08 Q1018 R28/CLRD// NOSIG
  • 251130Z 27004MPS 9999 BKN026 13/08 Q1018 R28/D NOSIG

TAF TAF UMGG
Valid from the 25 at 12:00 until the 26 at 12:00 UTC


251103Z 2512/2612 27005MPS 6000 BKN006
TEMPO 2515/2518 VRB02MPS 2000 BR BKN005
FM251800 15005MPS 3000 BR BKN005
TEMPO 2518/2606 VRB02MPS 0300 FG VV002
BECMG 2608/2610 9999 NSW BKN008
TEMPO 2608/2612 13005G10MPS BKN005



MET'MAP, your aeronautical weather chart ! - Copyright ORBIFLY December 2007 - Disclaimer

ORBIFLY MET'MAP TEAM :

Programming & Development : Alexandra Zaïnal
Concept & original design : Baudouin d'Aumeries
Assistance for programming : Marc-Olivier Méhu
Technical & hardware support : Manuel Goepfert

Contact : metmap@orbifly.com




SOURCES & CREDITS :

   NOAA